Time;durP1;ratioP1;P1;durP2;ratioP2;P2;SDS_P1;SDS_P2;PMS_P1;PMS_P2;Temp;Humidity;BMP_temperature;BMP_pressure;BME280_temperature;BME280_humidity;BME280_pressure;Samples;Min_cycle;Max_cycle;Signal;HPM_P1;HPM_P2
2022/04/07 00:02:20;;;;;;;1.00;1.00;;;;;;;;;;6181379;23;20021;-82
2022/04/07 00:04:48;;;;;;;5.90;1.63;;;;;;;;;;6186828;23;20028;-82
2022/04/07 00:07:16;;;;;;;4.50;1.30;;;;;;;;;;6190032;23;20047;-82
2022/04/07 00:09:44;;;;;;;1.52;1.42;;;;;;;;;;6182662;23;20035;-82
2022/04/07 00:12:12;;;;;;;1.30;1.20;;;;;;;;;;6190062;23;20017;-82
2022/04/07 00:14:40;;;;;;;1.50;1.40;;;;;;;;;;6179550;23;20036;-82
2022/04/07 00:17:10;;;;;;;1.45;1.35;;;;;;;;;;6185978;23;20032;-82
2022/04/07 00:19:40;;;;;;;2.17;1.10;;;;;;;;;;6189239;23;20020;-82
2022/04/07 00:22:08;;;;;;;2.28;1.63;;;;;;;;;;6181459;23;20029;-82
2022/04/07 00:24:36;;;;;;;2.03;1.83;;;;;;;;;;6160992;23;20013;-81
2022/04/07 00:27:04;;;;;;;1.92;1.48;;;;;;;;;;6190333;23;20013;-82
2022/04/07 00:29:33;;;;;;;1.38;1.27;;;;;;;;;;6152412;23;20361;-82
2022/04/07 00:32:05;;;;;;;1.30;1.20;;;;;;;;;;6190025;23;20024;-82
2022/04/07 00:34:33;;;;;;;1.58;1.48;;;;;;;;;;6179658;23;20032;-82
2022/04/07 00:37:02;;;;;;;1.65;1.55;;;;;;;;;;6159760;23;20468;-82
2022/04/07 00:39:30;;;;;;;3.60;1.90;;;;;;;;;;6188529;23;20040;-82
2022/04/07 00:42:00;;;;;;;1.52;1.45;;;;;;;;;;6182271;23;20029;-82
2022/04/07 00:44:28;;;;;;;4.68;1.70;;;;;;;;;;6187954;23;20017;-82
2022/04/07 00:55:13;;;;;;;1.48;1.25;;;;;;;;;;6136134;23;19954;-82
2022/04/07 00:58:32;;;;;;;3.90;3.60;;;;;;;;;;6149551;23;20381;-82
2022/04/07 01:02:27;;;;;;;1.60;1.23;;;;;;;;;;6059053;23;20037;-81
2022/04/07 01:05:49;;;;;;;1.73;1.63;;;;;;;;;;5986958;23;20031;-77
2022/04/07 01:08:17;;;;;;;1.52;1.30;;;;;;;;;;6037103;23;20020;-82
2022/04/07 01:10:54;;;;;;;1.20;1.10;;;;;;;;;;6049224;23;20034;-82
2022/04/07 01:13:22;;;;;;;1.13;1.13;;;;;;;;;;6097111;23;20030;-82
2022/04/07 01:15:51;;;;;;;1.33;1.30;;;;;;;;;;6189592;23;20032;-83
2022/04/07 01:18:19;;;;;;;3.60;1.20;;;;;;;;;;6179561;23;20033;-82
2022/04/07 01:20:47;;;;;;;1.40;1.30;;;;;;;;;;6186245;23;20029;-83
2022/04/07 01:23:15;;;;;;;0.85;0.85;;;;;;;;;;6188431;23;20024;-82
2022/04/07 01:25:43;;;;;;;2.20;1.88;;;;;;;;;;6182183;23;20036;-82
2022/04/07 01:28:11;;;;;;;2.28;1.55;;;;;;;;;;6188522;23;20091;-82
2022/04/07 01:30:39;;;;;;;1.67;1.58;;;;;;;;;;6178717;23;20360;-82
2022/04/07 01:33:07;;;;;;;1.90;1.20;;;;;;;;;;6185054;23;20029;-82
2022/04/07 01:35:35;;;;;;;1.30;1.20;;;;;;;;;;6188827;23;20013;-82
2022/04/07 01:38:04;;;;;;;1.42;1.33;;;;;;;;;;6179760;23;20036;-82
2022/04/07 01:40:33;;;;;;;2.05;1.38;;;;;;;;;;6187221;23;20017;-82
2022/04/07 01:43:04;;;;;;;1.40;1.30;;;;;;;;;;6188643;23;20028;-82
2022/04/07 01:45:33;;;;;;;4.45;1.67;;;;;;;;;;6183411;23;20400;-81
2022/04/07 01:48:03;;;;;;;1.38;1.27;;;;;;;;;;6188639;23;20025;-82
2022/04/07 01:56:57;;;;;;;4.10;2.53;;;;;;;;;;6077162;23;20814;-82
2022/04/07 02:05:21;;;;;;;1.20;1.10;;;;;;;;;;6175554;23;20032;-82
2022/04/07 02:08:44;;;;;;;1.20;1.20;;;;;;;;;;6186644;23;20021;-81
2022/04/07 02:12:05;;;;;;;1.58;1.55;;;;;;;;;;6163871;23;20027;-82
2022/04/07 02:19:03;;;;;;;5.18;1.33;;;;;;;;;;6176580;23;20934;-82
2022/04/07 02:22:33;;;;;;;1.85;1.70;;;;;;;;;;6149356;23;20021;-83
2022/04/07 02:25:56;;;;;;;2.45;1.35;;;;;;;;;;6180666;23;20031;-82
2022/04/07 02:29:12;;;;;;;1.75;1.65;;;;;;;;;;6183712;23;20013;-82
2022/04/07 02:32:37;;;;;;;2.47;1.42;;;;;;;;;;6188590;23;20460;-80
2022/04/07 02:36:07;;;;;;;1.65;1.55;;;;;;;;;;6170767;23;20480;-80
2022/04/07 02:39:43;;;;;;;1.98;1.88;;;;;;;;;;6164846;23;20032;-80
2022/04/07 02:42:47;;;;;;;1.05;1.05;;;;;;;;;;6177701;23;20640;-80
2022/04/07 02:46:23;;;;;;;;;;;;;;;;;;;;;
2022/04/07 02:50:00;;;;;;;1.50;1.40;;;;;;;;;;6180238;23;20349;-80
2022/04/07 02:53:09;;;;;;;2.03;1.92;;;;;;;;;;6182648;23;20036;-80
2022/04/07 02:55:43;;;;;;;1.27;1.27;;;;;;;;;;6187561;23;20017;-80
2022/04/07 02:58:11;;;;;;;1.63;1.52;;;;;;;;;;6150108;23;20025;-80
2022/04/07 03:00:39;;;;;;;1.30;1.30;;;;;;;;;;6185709;23;20029;-80
2022/04/07 03:03:08;;;;;;;1.48;1.38;;;;;;;;;;6136578;23;20401;-79
2022/04/07 03:05:36;;;;;;;2.20;2.00;;;;;;;;;;6181088;23;20024;-79
2022/04/07 03:08:05;;;;;;;1.13;1.13;;;;;;;;;;6186355;23;20027;-79
2022/04/07 03:10:33;;;;;;;1.52;1.42;;;;;;;;;;6177757;23;20527;-80
2022/04/07 03:13:01;;;;;;;2.08;1.52;;;;;;;;;;6183965;23;20056;-79
2022/04/07 03:15:30;;;;;;;1.30;1.20;;;;;;;;;;6187868;23;20337;-80
2022/04/07 03:17:58;;;;;;;1.40;1.30;;;;;;;;;;6179387;23;20029;-79
2022/04/07 03:20:26;;;;;;;1.58;1.48;;;;;;;;;;6186160;23;20013;-80
2022/04/07 03:22:54;;;;;;;1.35;1.35;;;;;;;;;;6186564;23;20013;-80
2022/04/07 03:25:23;;;;;;;2.13;2.00;;;;;;;;;;6182118;23;20033;-80
2022/04/07 03:27:51;;;;;;;1.25;1.15;;;;;;;;;;6186730;23;20027;-79
2022/04/07 03:30:19;;;;;;;3.60;2.95;;;;;;;;;;6178941;23;20032;-80
2022/04/07 03:32:48;;;;;;;1.90;1.17;;;;;;;;;;6184767;23;20029;-80
2022/04/07 03:35:16;;;;;;;1.15;1.15;;;;;;;;;;6187102;23;20061;-79
2022/04/07 03:37:44;;;;;;;1.30;1.30;;;;;;;;;;6180121;23;20025;-79
2022/04/07 03:40:13;;;;;;;1.58;1.48;;;;;;;;;;6187329;23;20028;-80
2022/04/07 03:42:43;;;;;;;1.23;1.23;;;;;;;;;;6150839;23;20025;-80
2022/04/07 03:45:12;;;;;;;0.80;0.80;;;;;;;;;;6183247;23;20025;-80
2022/04/07 03:47:43;;;;;;;1.60;1.50;;;;;;;;;;6186970;23;20025;-80
2022/04/07 03:50:11;;;;;;;1.13;1.13;;;;;;;;;;6176424;23;20032;-80
2022/04/07 03:52:40;;;;;;;1.80;1.70;;;;;;;;;;6185118;23;20021;-79
2022/04/07 03:55:08;;;;;;;1.20;1.10;;;;;;;;;;6187197;23;20013;-79
2022/04/07 03:57:36;;;;;;;2.15;1.23;;;;;;;;;;6155778;23;20058;-80
2022/04/07 04:00:05;;;;;;;0.80;0.80;;;;;;;;;;6187361;23;20020;-79
2022/04/07 04:02:39;;;;;;;4.10;0.98;;;;;;;;;;6176415;23;20657;-79
2022/04/07 04:05:07;;;;;;;0.80;0.80;;;;;;;;;;6179758;23;20047;-80
2022/04/07 04:07:36;;;;;;;1.13;1.10;;;;;;;;;;6186550;23;20017;-80
2022/04/07 04:10:05;;;;;;;0.68;0.68;;;;;;;;;;6152537;23;20029;-80
2022/04/07 04:12:33;;;;;;;0.80;0.80;;;;;;;;;;6185676;23;20043;-80
2022/04/07 04:15:01;;;;;;;1.10;1.10;;;;;;;;;;6186988;23;20013;-80
2022/04/07 04:17:33;;;;;;;1.88;1.73;;;;;;;;;;6181923;23;20401;-80
2022/04/07 04:20:01;;;;;;;;;;;;;;;;;;6189327;23;20047;-80
2022/04/07 04:22:29;;;;;;;0.85;0.85;;;;;;;;;;6179035;23;19920;-79
2022/04/07 04:24:57;;;;;;;0.77;0.73;;;;;;;;;;6176979;23;20031;-80
2022/04/07 04:27:26;;;;;;;0.80;0.70;;;;;;;;;;6162360;23;20036;-80
2022/04/07 04:29:54;;;;;;;1.25;1.25;;;;;;;;;;6155467;23;20357;-80
2022/04/07 04:32:22;;;;;;;1.15;1.15;;;;;;;;;;6188312;23;20017;-79
2022/04/07 04:34:50;;;;;;;0.90;0.90;;;;;;;;;;6189011;23;20306;-80
2022/04/07 04:37:21;;;;;;;0.90;0.90;;;;;;;;;;6184559;23;20025;-80
2022/04/07 04:39:49;;;;;;;1.42;1.33;;;;;;;;;;6187898;23;20429;-79
2022/04/07 04:42:18;;;;;;;0.80;0.80;;;;;;;;;;6180489;23;20021;-80
2022/04/07 04:44:46;;;;;;;0.95;0.95;;;;;;;;;;6177675;23;20477;-82
2022/04/07 04:47:18;;;;;;;1.20;0.90;;;;;;;;;;6188742;23;20021;-81
2022/04/07 04:49:51;;;;;;;0.80;0.80;;;;;;;;;;6181421;23;20059;-81
2022/04/07 04:52:20;;;;;;;0.80;0.80;;;;;;;;;;6188281;23;20024;-81
2022/04/07 04:54:48;;;;;;;0.90;0.90;;;;;;;;;;6150956;23;20492;-81
2022/04/07 04:57:16;;;;;;;1.92;1.13;;;;;;;;;;6184186;23;20020;-80
2022/04/07 04:59:44;;;;;;;0.88;0.88;;;;;;;;;;6161710;23;20047;-81
2022/04/07 05:02:12;;;;;;;1.23;1.20;;;;;;;;;;6180450;23;20330;-83
2022/04/07 05:04:40;;;;;;;1.48;1.35;;;;;;;;;;6160358;23;20029;-84
2022/04/07 05:07:30;;;;;;;1.25;1.15;;;;;;;;;;6126807;23;20025;-81
2022/04/07 05:09:58;;;;;;;0.80;0.80;;;;;;;;;;6151637;23;20779;-83
2022/04/07 05:12:26;;;;;;;2.25;0.88;;;;;;;;;;6187998;23;20017;-83
2022/04/07 05:14:55;;;;;;;0.80;0.80;;;;;;;;;;6162861;23;20013;-84
2022/04/07 05:17:23;;;;;;;1.27;1.02;;;;;;;;;;6157318;23;20021;-84
2022/04/07 05:19:55;;;;;;;0.98;0.98;;;;;;;;;;6161629;23;20017;-84
2022/04/07 05:22:23;;;;;;;1.20;1.17;;;;;;;;;;6179113;23;20029;-82
2022/04/07 05:24:52;;;;;;;1.13;1.13;;;;;;;;;;6184873;23;20029;-83
2022/04/07 05:27:20;;;;;;;1.05;0.80;;;;;;;;;;6178442;23;20017;-82
2022/04/07 05:29:56;;;;;;;1.23;1.10;;;;;;;;;;6181631;23;20620;-83
2022/04/07 05:32:24;;;;;;;1.05;1.05;;;;;;;;;;6187737;23;20596;-83
2022/04/07 05:34:52;;;;;;;1.23;1.05;;;;;;;;;;6188504;23;20017;-82
2022/04/07 05:37:24;;;;;;;1.00;1.00;;;;;;;;;;6183631;23;20025;-83
2022/04/07 05:39:53;;;;;;;2.10;1.30;;;;;;;;;;6187649;23;20017;-82
2022/04/07 05:42:21;;;;;;;1.00;1.00;;;;;;;;;;6152986;23;20024;-82
2022/04/07 05:44:50;;;;;;;1.35;1.35;;;;;;;;;;6137403;23;20452;-82
2022/04/07 05:47:18;;;;;;;0.80;0.80;;;;;;;;;;6151286;23;20024;-82
2022/04/07 05:49:46;;;;;;;1.48;1.02;;;;;;;;;;6181283;23;20032;-82
2022/04/07 05:52:14;;;;;;;0.57;0.57;;;;;;;;;;6161761;23;20024;-82
2022/04/07 05:54:42;;;;;;;1.00;1.00;;;;;;;;;;6177332;23;20036;-81
2022/04/07 05:57:10;;;;;;;1.20;1.13;;;;;;;;;;6125995;23;20036;-79
2022/04/07 05:59:38;;;;;;;2.47;1.20;;;;;;;;;;6187841;23;20017;-80
2022/04/07 06:02:06;;;;;;;1.05;1.05;;;;;;;;;;6180303;23;20546;-80
2022/04/07 06:04:39;;;;;;;1.20;1.20;;;;;;;;;;6177420;23;20057;-80
2022/04/07 06:07:07;;;;;;;0.75;0.75;;;;;;;;;;6177336;23;20032;-79
2022/04/07 06:09:35;;;;;;;1.17;1.17;;;;;;;;;;6179687;23;20025;-80
2022/04/07 06:12:03;;;;;;;0.82;0.82;;;;;;;;;;6188213;23;20035;-80
2022/04/07 06:14:31;;;;;;;1.20;1.10;;;;;;;;;;6178564;23;20024;-80
2022/04/07 06:17:01;;;;;;;0.93;0.93;;;;;;;;;;6177853;23;20029;-80
2022/04/07 06:19:30;;;;;;;0.70;0.70;;;;;;;;;;6150097;23;20017;-80
2022/04/07 06:21:58;;;;;;;8.27;2.15;;;;;;;;;;6180174;23;20036;-80
2022/04/07 06:24:27;;;;;;;0.80;0.80;;;;;;;;;;6184570;23;20329;-80
2022/04/07 06:26:55;;;;;;;0.80;0.80;;;;;;;;;;6151415;23;20025;-81
2022/04/07 06:29:23;;;;;;;1.77;0.98;;;;;;;;;;6156893;23;20021;-84
2022/04/07 06:31:54;;;;;;;;;;;;;;;;;;6189228;23;20232;-82
2022/04/07 06:34:26;;;;;;;1.23;1.23;;;;;;;;;;6176682;23;20339;-83
2022/04/07 06:36:55;;;;;;;0.60;0.60;;;;;;;;;;6151228;23;20021;-83
2022/04/07 06:39:22;;;;;;;0.93;0.93;;;;;;;;;;6161099;23;20013;-80
2022/04/07 06:41:51;;;;;;;0.60;0.60;;;;;;;;;;6180466;23;20338;-81
2022/04/07 06:44:19;;;;;;;0.60;0.60;;;;;;;;;;6126962;23;20020;-82
2022/04/07 06:46:47;;;;;;;0.80;0.80;;;;;;;;;;6126840;23;20326;-82
2022/04/07 06:49:19;;;;;;;1.15;0.80;;;;;;;;;;6125700;23;20365;-82
2022/04/07 06:51:56;;;;;;;0.65;0.65;;;;;;;;;;6164298;23;20020;-82
2022/04/07 06:54:24;;;;;;;0.90;0.90;;;;;;;;;;6178732;23;20077;-82
2022/04/07 06:56:52;;;;;;;0.80;0.80;;;;;;;;;;6185433;23;20021;-82
2022/04/07 06:59:20;;;;;;;0.68;0.60;;;;;;;;;;6187919;23;20029;-82
2022/04/07 07:02:08;;;;;;;0.50;0.50;;;;;;;;;;6177344;23;20024;-82
2022/04/07 07:05:14;;;;;;;0.63;0.60;;;;;;;;;;6123470;23;20109;-82
2022/04/07 07:07:55;;;;;;;0.60;0.60;;;;;;;;;;6152331;23;20021;-82
2022/04/07 07:10:31;;;;;;;0.60;0.60;;;;;;;;;;6175087;23;20024;-83
2022/04/07 07:13:03;;;;;;;0.50;0.50;;;;;;;;;;6158186;23;20021;-83
2022/04/07 07:15:31;;;;;;;0.50;0.50;;;;;;;;;;6161748;23;20021;-83
2022/04/07 07:18:00;;;;;;;0.50;0.50;;;;;;;;;;6126243;23;20056;-82
2022/04/07 07:20:30;;;;;;;3.10;0.50;;;;;;;;;;6126333;23;20754;-83
2022/04/07 07:23:06;;;;;;;1.02;1.02;;;;;;;;;;6151020;23;20035;-82
2022/04/07 07:25:37;;;;;;;0.40;0.40;;;;;;;;;;6182337;23;20029;-81
2022/04/07 07:28:06;;;;;;;0.50;0.50;;;;;;;;;;6187749;23;20044;-83
2022/04/07 07:30:37;;;;;;;0.55;0.43;;;;;;;;;;6178197;23;20033;-85
2022/04/07 07:33:14;;;;;;;0.65;0.65;;;;;;;;;;6149702;23;20026;-83
2022/04/07 07:35:46;;;;;;;0.73;0.73;;;;;;;;;;6118007;23;20022;-83
2022/04/07 07:38:15;;;;;;;0.43;0.40;;;;;;;;;;6090400;23;20038;-82
2022/04/07 07:40:44;;;;;;;0.80;0.70;;;;;;;;;;6120801;23;20021;-82
2022/04/07 07:43:12;;;;;;;0.50;0.50;;;;;;;;;;6101229;23;20022;-83
2022/04/07 07:45:40;;;;;;;0.50;0.50;;;;;;;;;;6105378;23;20026;-81
2022/04/07 07:48:26;;;;;;;0.50;0.50;;;;;;;;;;6120637;23;20034;-83
2022/04/07 07:50:58;;;;;;;0.43;0.40;;;;;;;;;;6125910;23;20040;-81
2022/04/07 07:53:30;;;;;;;0.40;0.40;;;;;;;;;;6097306;23;20030;-83
2022/04/07 07:55:59;;;;;;;0.65;0.60;;;;;;;;;;6117451;23;20033;-80
2022/04/07 07:58:27;;;;;;;0.55;0.55;;;;;;;;;;6118644;23;20025;-81
2022/04/07 08:00:56;;;;;;;0.30;0.30;;;;;;;;;;6124226;23;20037;-81
2022/04/07 08:03:25;;;;;;;0.30;0.30;;;;;;;;;;6124640;23;20461;-81
2022/04/07 08:05:56;;;;;;;0.68;0.68;;;;;;;;;;6096508;23;20022;-78
2022/04/07 08:08:25;;;;;;;0.40;0.40;;;;;;;;;;6124489;23;20058;-81
2022/04/07 08:10:55;;;;;;;0.43;0.43;;;;;;;;;;6125971;23;20029;-83
2022/04/07 08:13:25;;;;;;;1.50;1.13;;;;;;;;;;6069149;23;20041;-80
2022/04/07 08:15:53;;;;;;;0.40;0.40;;;;;;;;;;6118650;23;20022;-82
2022/04/07 08:18:23;;;;;;;0.50;0.50;;;;;;;;;;6136735;23;20081;-85
2022/04/07 08:20:51;;;;;;;1.23;0.50;;;;;;;;;;6128022;23;20028;-80
2022/04/07 08:23:20;;;;;;;4.65;0.60;;;;;;;;;;6164003;23;20013;-80
2022/04/07 08:25:49;;;;;;;1.10;0.60;;;;;;;;;;6147951;23;20037;-80
2022/04/07 08:28:20;;;;;;;0.50;0.50;;;;;;;;;;6160327;23;20018;-80
2022/04/07 08:30:50;;;;;;;0.50;0.50;;;;;;;;;;6122783;23;20022;-82
2022/04/07 08:33:18;;;;;;;0.50;0.50;;;;;;;;;;6147449;23;20026;-82
2022/04/07 08:35:46;;;;;;;0.70;0.52;;;;;;;;;;6159708;23;20017;-81
2022/04/07 08:38:19;;;;;;;0.35;0.35;;;;;;;;;;6150710;23;20022;-80
2022/04/07 08:40:51;;;;;;;0.80;0.80;;;;;;;;;;6149392;23;20018;-82
2022/04/07 08:43:20;;;;;;;0.63;0.63;;;;;;;;;;6158437;23;20014;-82
2022/04/07 08:45:49;;;;;;;0.45;0.45;;;;;;;;;;6153241;23;20029;-81
2022/04/07 08:48:17;;;;;;;0.40;0.40;;;;;;;;;;6158158;23;20010;-81
2022/04/07 08:50:46;;;;;;;0.40;0.40;;;;;;;;;;6148733;23;20029;-82
2022/04/07 08:53:14;;;;;;;5.88;0.68;;;;;;;;;;6153956;23;20036;-80
2022/04/07 08:55:47;;;;;;;0.70;0.55;;;;;;;;;;6125548;23;20040;-82
2022/04/07 08:58:21;;;;;;;0.40;0.40;;;;;;;;;;6125796;23;20464;-82
2022/04/07 09:00:49;;;;;;;0.98;0.70;;;;;;;;;;6124226;23;20333;-81
2022/04/07 09:03:17;;;;;;;0.50;0.35;;;;;;;;;;6149081;23;20017;-82
2022/04/07 09:06:18;;;;;;;0.52;0.40;;;;;;;;;;6152283;23;20030;-80
2022/04/07 09:08:46;;;;;;;0.30;0.30;;;;;;;;;;6158158;23;20021;-80
2022/04/07 09:11:17;;;;;;;2.00;0.50;;;;;;;;;;6161770;23;20017;-82
2022/04/07 09:13:46;;;;;;;1.42;0.70;;;;;;;;;;6154138;23;20652;-81
2022/04/07 09:16:17;;;;;;;0.30;0.30;;;;;;;;;;6150167;23;20028;-81
2022/04/07 09:19:27;;;;;;;2.72;0.85;;;;;;;;;;6122248;23;20025;-81
2022/04/07 09:22:05;;;;;;;0.30;0.30;;;;;;;;;;6121835;23;20045;-82
2022/04/07 09:25:19;;;;;;;1.42;0.70;;;;;;;;;;6122318;23;20044;-82
2022/04/07 09:27:48;;;;;;;;;;;;;;;;;;6147047;23;20014;-82
2022/04/07 09:30:20;;;;;;;0.82;0.80;;;;;;;;;;6097970;23;19921;-81
2022/04/07 09:32:49;;;;;;;1.15;0.32;;;;;;;;;;6153643;23;20025;-80
2022/04/07 09:35:19;;;;;;;0.50;0.50;;;;;;;;;;6157684;23;20033;-79
2022/04/07 09:37:47;;;;;;;5.60;0.80;;;;;;;;;;6151338;23;20077;-81
2022/04/07 09:40:47;;;;;;;1.00;0.82;;;;;;;;;;6158014;23;20013;-81
2022/04/07 09:43:15;;;;;;;0.65;0.65;;;;;;;;;;6155571;23;20361;-81
2022/04/07 09:45:47;;;;;;;0.25;0.25;;;;;;;;;;6151746;23;20532;-76
2022/04/07 09:48:36;;;;;;;2.10;1.05;;;;;;;;;;6142265;23;20017;-83
2022/04/07 09:51:06;;;;;;;0.40;0.40;;;;;;;;;;6102103;23;20029;-83
2022/04/07 09:53:37;;;;;;;0.30;0.30;;;;;;;;;;6151574;23;20026;-82
2022/04/07 09:56:09;;;;;;;0.40;0.40;;;;;;;;;;6159101;23;20346;-83
2022/04/07 09:58:44;;;;;;;0.50;0.50;;;;;;;;;;6145596;23;20029;-81
2022/04/07 10:01:14;;;;;;;1.98;0.40;;;;;;;;;;6154180;23;20036;-82
2022/04/07 10:03:44;;;;;;;1.85;0.75;;;;;;;;;;6159279;23;20024;-82
2022/04/07 10:06:25;;;;;;;0.50;0.50;;;;;;;;;;6150577;23;20040;-81
2022/04/07 10:09:33;;;;;;;0.30;0.30;;;;;;;;;;6124175;23;20021;-84
2022/04/07 10:12:29;;;;;;;17.60;0.93;;;;;;;;;;6155978;23;20434;-81
2022/04/07 10:14:59;;;;;;;;;;;;;;;;;;6157439;23;20445;-81
2022/04/07 10:17:29;;;;;;;0.52;0.40;;;;;;;;;;6153122;23;20252;-87
2022/04/07 10:20:06;;;;;;;0.93;0.68;;;;;;;;;;6157641;23;20018;-83
2022/04/07 10:22:43;;;;;;;0.30;0.30;;;;;;;;;;6148558;23;20025;-81
2022/04/07 10:25:13;;;;;;;0.47;0.47;;;;;;;;;;6152550;23;20025;-85
2022/04/07 10:27:48;;;;;;;0.65;0.50;;;;;;;;;;6122492;23;20021;-84
2022/04/07 10:30:17;;;;;;;0.50;0.50;;;;;;;;;;6149760;23;20029;-83
2022/04/07 10:32:46;;;;;;;0.68;0.68;;;;;;;;;;6155167;23;20404;-81
2022/04/07 10:35:36;;;;;;;1.55;0.43;;;;;;;;;;6157390;23;20025;-84
2022/04/07 10:38:34;;;;;;;0.40;0.40;;;;;;;;;;6147247;23;20029;-82
2022/04/07 10:41:03;;;;;;;0.60;0.60;;;;;;;;;;6149803;23;20029;-83
2022/04/07 10:43:38;;;;;;;0.40;0.40;;;;;;;;;;6147886;23;20025;-85
2022/04/07 10:46:21;;;;;;;0.30;0.30;;;;;;;;;;6151132;23;20029;-83
2022/04/07 10:49:02;;;;;;;0.57;0.57;;;;;;;;;;6119882;23;20022;-86
2022/04/07 10:51:43;;;;;;;0.40;0.40;;;;;;;;;;6109924;23;20469;-86
2022/04/07 10:54:12;;;;;;;0.32;0.32;;;;;;;;;;6143417;23;20036;-81
2022/04/07 11:00:20;;;;;;;0.50;0.50;;;;;;;;;;6157062;23;20346;-83
2022/04/07 11:03:12;;;;;;;0.30;0.30;;;;;;;;;;6148136;23;20085;-83
2022/04/07 11:05:59;;;;;;;0.32;0.32;;;;;;;;;;6145942;23;20032;-82
2022/04/07 11:08:30;;;;;;;0.35;0.35;;;;;;;;;;6155776;23;20021;-80
2022/04/07 11:10:58;;;;;;;0.30;0.30;;;;;;;;;;6132229;23;20043;-81
2022/04/07 11:13:43;;;;;;;6.93;0.93;;;;;;;;;;6121103;23;20025;-80
2022/04/07 11:16:21;;;;;;;0.32;0.32;;;;;;;;;;6122131;23;20021;-81
2022/04/07 11:19:25;;;;;;;0.30;0.30;;;;;;;;;;6105797;23;20450;-85
2022/04/07 11:22:13;;;;;;;0.32;0.32;;;;;;;;;;6124958;23;20041;-83
2022/04/07 11:25:14;;;;;;;0.40;0.40;;;;;;;;;;6145074;23;20021;-80
2022/04/07 11:28:10;;;;;;;0.50;0.50;;;;;;;;;;6155920;23;20346;-83
2022/04/07 11:30:40;;;;;;;0.50;0.50;;;;;;;;;;6150085;23;20031;-81
2022/04/07 11:33:25;;;;;;;0.40;0.40;;;;;;;;;;6123900;23;20028;-81
2022/04/07 11:36:04;;;;;;;1.88;0.40;;;;;;;;;;6157768;23;20021;-80
2022/04/07 11:38:38;;;;;;;0.30;0.30;;;;;;;;;;6122929;23;20099;-83
2022/04/07 11:41:14;;;;;;;0.73;0.73;;;;;;;;;;6156149;23;20354;-81
2022/04/07 11:43:43;;;;;;;0.40;0.40;;;;;;;;;;6160359;23;20018;-82
2022/04/07 11:46:13;;;;;;;0.75;0.30;;;;;;;;;;6151528;23;20029;-81
2022/04/07 11:49:03;;;;;;;0.60;0.60;;;;;;;;;;6153958;23;20038;-82
2022/04/07 11:51:33;;;;;;;0.40;0.40;;;;;;;;;;6123061;23;20024;-78
2022/04/07 11:54:02;;;;;;;0.73;0.40;;;;;;;;;;6151141;23;20354;-83
2022/04/07 11:56:37;;;;;;;1.05;0.70;;;;;;;;;;6158466;23;20014;-84
2022/04/07 11:59:06;;;;;;;0.95;0.40;;;;;;;;;;6123065;23;20021;-82
2022/04/07 12:01:38;;;;;;;5.28;1.15;;;;;;;;;;6146919;23;20032;-82
2022/04/07 12:04:11;;;;;;;0.40;0.40;;;;;;;;;;6159690;23;20028;-82
2022/04/07 12:06:44;;;;;;;0.68;0.52;;;;;;;;;;6098971;23;20041;-83
2022/04/07 12:09:14;;;;;;;0.43;0.40;;;;;;;;;;6121392;23;20033;-81
2022/04/07 12:11:44;;;;;;;1.42;0.95;;;;;;;;;;6133373;23;20018;-83
2022/04/07 12:14:15;;;;;;;0.38;0.38;;;;;;;;;;6122523;23;20649;-83
2022/04/07 12:16:50;;;;;;;0.30;0.30;;;;;;;;;;6122868;23;20021;-82
2022/04/07 12:20:38;;;;;;;;;;;;;;;;;;;;;
2022/04/07 12:23:47;;;;;;;0.57;0.57;;;;;;;;;;6126409;23;20457;-84
2022/04/07 12:26:16;;;;;;;0.30;0.30;;;;;;;;;;6086582;23;20354;-82
2022/04/07 12:28:44;;;;;;;0.52;0.52;;;;;;;;;;6120630;23;20029;-83
2022/04/07 12:31:23;;;;;;;0.50;0.40;;;;;;;;;;6124030;23;20341;-82
2022/04/07 12:33:55;;;;;;;0.50;0.50;;;;;;;;;;6097542;23;20029;-79
2022/04/07 12:36:29;;;;;;;0.73;0.40;;;;;;;;;;6117960;23;20755;-81
2022/04/07 12:38:59;;;;;;;0.70;0.65;;;;;;;;;;6121313;23;20024;-81
2022/04/07 12:41:36;;;;;;;0.40;0.40;;;;;;;;;;6122682;23;20025;-81
2022/04/07 12:44:04;;;;;;;0.75;0.35;;;;;;;;;;6122738;23;20040;-80
2022/04/07 12:47:07;;;;;;;0.30;0.30;;;;;;;;;;6144189;23;20021;-81
2022/04/07 12:49:36;;;;;;;1.08;0.77;;;;;;;;;;6124491;23;20032;-81
2022/04/07 12:52:04;;;;;;;0.40;0.40;;;;;;;;;;6155865;23;20322;-80
2022/04/07 12:54:32;;;;;;;0.30;0.30;;;;;;;;;;6148043;23;20041;-84
2022/04/07 12:57:11;;;;;;;0.32;0.32;;;;;;;;;;6153112;23;20029;-81
2022/04/07 12:59:41;;;;;;;0.50;0.50;;;;;;;;;;6158854;23;20021;-79
2022/04/07 13:02:09;;;;;;;0.65;0.65;;;;;;;;;;6150084;23;20037;-80
2022/04/07 13:08:23;;;;;;;0.40;0.40;;;;;;;;;;6119413;23;20321;-80
2022/04/07 13:10:52;;;;;;;0.30;0.30;;;;;;;;;;6147682;23;20029;-78
2022/04/07 13:13:21;;;;;;;0.40;0.40;;;;;;;;;;6154436;23;20030;-78
2022/04/07 13:15:49;;;;;;;0.40;0.40;;;;;;;;;;6156835;23;20013;-79
2022/04/07 13:18:18;;;;;;;0.40;0.40;;;;;;;;;;6149962;23;20039;-79
2022/04/07 13:20:46;;;;;;;0.30;0.30;;;;;;;;;;6130644;23;20037;-84
2022/04/07 13:23:15;;;;;;;0.30;0.30;;;;;;;;;;6153903;23;20025;-82
2022/04/07 13:25:43;;;;;;;0.40;0.40;;;;;;;;;;6146839;23;20033;-82
2022/04/07 13:28:11;;;;;;;0.43;0.43;;;;;;;;;;6174642;23;20043;-83
2022/04/07 13:30:40;;;;;;;0.38;0.30;;;;;;;;;;6151589;23;20051;-84
2022/04/07 13:33:09;;;;;;;1.98;0.50;;;;;;;;;;6184698;23;20033;-82
2022/04/07 13:35:50;;;;;;;0.75;0.50;;;;;;;;;;6188861;23;20017;-84
2022/04/07 13:38:23;;;;;;;3.90;0.45;;;;;;;;;;6178508;23;20033;-83
2022/04/07 13:40:52;;;;;;;2.05;0.80;;;;;;;;;;6177557;23;20017;-85
2022/04/07 13:43:22;;;;;;;1.23;0.63;;;;;;;;;;6151966;23;20021;-86
2022/04/07 13:45:50;;;;;;;0.65;0.40;;;;;;;;;;6177273;23;20033;-84
2022/04/07 13:48:24;;;;;;;0.43;0.43;;;;;;;;;;6188221;23;20017;-83
2022/04/07 13:50:52;;;;;;;0.50;0.50;;;;;;;;;;6152806;23;20025;-81
2022/04/07 13:53:21;;;;;;;4.20;0.60;;;;;;;;;;6151415;23;20024;-85
2022/04/07 13:55:49;;;;;;;0.75;0.75;;;;;;;;;;6128455;23;20017;-84
2022/04/07 13:58:18;;;;;;;0.50;0.50;;;;;;;;;;6107009;23;20025;-84
2022/04/07 14:00:46;;;;;;;0.40;0.40;;;;;;;;;;6189165;23;20309;-87
2022/04/07 14:03:14;;;;;;;0.32;0.32;;;;;;;;;;6127141;23;20025;-86
2022/04/07 14:05:43;;;;;;;1.00;0.40;;;;;;;;;;6184803;23;20741;-85
2022/04/07 14:08:16;;;;;;;0.30;0.30;;;;;;;;;;6188162;23;20013;-80
2022/04/07 14:10:44;;;;;;;0.32;0.32;;;;;;;;;;6179170;23;20032;-79
2022/04/07 14:13:12;;;;;;;0.63;0.30;;;;;;;;;;6187019;23;20028;-85
2022/04/07 14:15:40;;;;;;;0.32;0.32;;;;;;;;;;6190140;23;20013;-85
2022/04/07 14:18:11;;;;;;;2.15;0.47;;;;;;;;;;6182269;23;20029;-79
2022/04/07 14:20:42;;;;;;;0.30;0.30;;;;;;;;;;6162521;23;20703;-81
2022/04/07 14:23:11;;;;;;;0.40;0.40;;;;;;;;;;6176942;23;20032;-82
2022/04/07 14:25:40;;;;;;;0.40;0.40;;;;;;;;;;6185123;23;20565;-81
2022/04/07 14:28:09;;;;;;;0.40;0.40;;;;;;;;;;6129701;23;20468;-83
2022/04/07 14:30:37;;;;;;;0.40;0.40;;;;;;;;;;6177488;23;20025;-82
2022/04/07 14:33:05;;;;;;;0.40;0.40;;;;;;;;;;6160578;23;20013;-83
2022/04/07 14:35:40;;;;;;;0.40;0.40;;;;;;;;;;6188677;23;20013;-82
2022/04/07 14:38:11;;;;;;;0.73;0.50;;;;;;;;;;6150482;23;20348;-82
2022/04/07 14:40:43;;;;;;;0.40;0.40;;;;;;;;;;6189168;23;20024;-82
2022/04/07 14:43:13;;;;;;;0.40;0.38;;;;;;;;;;6127515;23;20029;-82
2022/04/07 14:45:43;;;;;;;4.18;0.40;;;;;;;;;;6177742;23;20021;-81
2022/04/07 14:48:12;;;;;;;0.40;0.40;;;;;;;;;;6187142;23;20017;-81
2022/04/07 14:50:41;;;;;;;1.52;0.40;;;;;;;;;;6179780;23;20028;-82
2022/04/07 14:53:09;;;;;;;0.32;0.32;;;;;;;;;;6159776;23;20025;-85
2022/04/07 14:55:37;;;;;;;0.40;0.40;;;;;;;;;;6188522;23;20113;-85
2022/04/07 14:58:12;;;;;;;0.82;0.40;;;;;;;;;;6150893;23;20036;-85
2022/04/07 15:00:49;;;;;;;0.40;0.40;;;;;;;;;;6188538;23;20013;-85
2022/04/07 15:03:17;;;;;;;0.63;0.40;;;;;;;;;;6176897;23;20025;-83
2022/04/07 15:09:51;;;;;;;0.52;0.40;;;;;;;;;;6184135;23;20032;-83
2022/04/07 15:15:52;;;;;;;0.35;0.35;;;;;;;;;;6116469;23;20036;-81
2022/04/07 15:18:20;;;;;;;0.40;0.40;;;;;;;;;;6180923;23;20072;-81
2022/04/07 15:20:48;;;;;;;0.35;0.35;;;;;;;;;;6188217;23;20039;-82
2022/04/07 15:23:17;;;;;;;6.55;0.93;;;;;;;;;;6125416;23;20048;-84
2022/04/07 15:25:45;;;;;;;0.32;0.32;;;;;;;;;;6183837;23;20036;-83
2022/04/07 15:28:16;;;;;;;0.40;0.40;;;;;;;;;;6179145;23;20370;-82
2022/04/07 15:30:45;;;;;;;0.40;0.40;;;;;;;;;;6126638;23;20329;-84
2022/04/07 15:33:17;;;;;;;0.30;0.30;;;;;;;;;;6149701;23;20021;-83
2022/04/07 15:35:45;;;;;;;0.47;0.47;;;;;;;;;;6188349;23;20017;-84
2022/04/07 15:38:16;;;;;;;1.85;0.75;;;;;;;;;;6125436;23;20029;-85
2022/04/07 15:40:45;;;;;;;0.30;0.30;;;;;;;;;;6162472;23;20020;-84
2022/04/07 15:43:15;;;;;;;0.30;0.30;;;;;;;;;;6176507;23;20072;-83
2022/04/07 15:45:44;;;;;;;0.60;0.60;;;;;;;;;;6183622;23;20017;-86
2022/04/07 15:48:12;;;;;;;0.40;0.40;;;;;;;;;;6187345;23;20035;-83
2022/04/07 15:50:41;;;;;;;0.38;0.38;;;;;;;;;;6150012;23;20457;-83
2022/04/07 15:53:11;;;;;;;1.15;0.77;;;;;;;;;;6182803;23;20032;-87
2022/04/07 15:55:39;;;;;;;0.35;0.35;;;;;;;;;;6126583;23;20028;-82
2022/04/07 15:58:07;;;;;;;0.30;0.30;;;;;;;;;;6181371;23;20357;-85
2022/04/07 16:00:35;;;;;;;0.30;0.30;;;;;;;;;;6162151;23;20333;-81
2022/04/07 16:03:03;;;;;;;0.30;0.30;;;;;;;;;;6149901;23;20032;-84
2022/04/07 16:05:32;;;;;;;0.50;0.40;;;;;;;;;;6157773;23;20078;-83
2022/04/07 16:08:00;;;;;;;0.40;0.40;;;;;;;;;;6160153;23;20017;-81